Terminal Aerodrome Forecast
Issued by NWS

Home | Current Version | Previous Version | Text Only | Print | Product List | Glossary On
Versions: 1 2 3 4 5 6 7 8 9 10 11 12 13 14 15 16 17 18 19 20 21 22 23 24 25 26 27 28 29 30 31 32 33 34 35
000
FTUS45 KSLC 042340
TAFEVW
TAF
KEVW 042340Z 0500/0524 27012G18KT P6SM FEW100
     FM050100 28009KT P6SM FEW100 SCT150
     FM050500 14007KT P6SM SCT090 BKN150
     FM051300 19011KT P6SM SCT080 BKN120
     FM051700 23021G32KT P6SM VCSH SCT070 BKN150=

USA.gov is the U.S. government's official web portal to all federal, state and local government web resources and services.